Time;durP1;ratioP1;P1;durP2;ratioP2;P2;SDS_P1;SDS_P2;PMS_P1;PMS_P2;Temp;Humidity;BMP_temperature;BMP_pressure;BME280_temperature;BME280_humidity;BME280_pressure;Samples;Min_cycle;Max_cycle;Signal;HPM_P1;HPM_P2
2023/11/08 00:02:02;;;;;;;4.97;2.45;;;;;;;4.43;100.00;96902.91;5040138;28;20048;-68
2023/11/08 00:04:27;;;;;;;7.30;2.92;;;;;;;4.33;100.00;96904.06;5022534;28;20052;-70
2023/11/08 00:06:52;;;;;;;5.25;2.58;;;;;;;4.18;100.00;96902.66;5040097;28;20080;-70
2023/11/08 00:09:18;;;;;;;7.25;2.78;;;;;;;3.95;100.00;96904.72;5040740;28;20122;-71
2023/11/08 00:11:43;;;;;;;3.58;2.55;;;;;;;3.88;100.00;96904.38;5040967;28;20048;-70
2023/11/08 00:14:10;;;;;;;6.80;2.65;;;;;;;3.97;100.00;96894.34;5034473;28;20076;-70
2023/11/08 00:16:36;;;;;;;6.95;2.90;;;;;;;3.99;100.00;96898.31;5027044;28;20455;-70
2023/11/08 00:19:01;;;;;;;6.20;2.45;;;;;;;4.04;100.00;96893.88;5030457;28;20049;-69
2023/11/08 00:21:29;;;;;;;5.32;3.00;;;;;;;4.04;100.00;96889.25;5036460;28;20812;-70
2023/11/08 00:23:54;;;;;;;5.50;2.67;;;;;;;4.04;100.00;96894.66;5039277;28;20134;-70
2023/11/08 00:26:20;;;;;;;5.22;2.88;;;;;;;3.95;100.00;96894.66;5034371;28;20083;-70
2023/11/08 00:28:46;;;;;;;6.97;2.83;;;;;;;3.87;100.00;96894.66;5040113;28;20122;-70
2023/11/08 00:31:11;;;;;;;3.63;2.60;;;;;;;3.77;100.00;96893.84;5035217;28;20132;-70
2023/11/08 00:33:37;;;;;;;6.32;2.50;;;;;;;3.77;100.00;96893.84;5039150;28;20534;-70
2023/11/08 00:36:03;;;;;;;5.55;2.72;;;;;;;3.85;100.00;96896.88;5043279;28;20034;-70
2023/11/08 00:38:28;;;;;;;4.82;2.72;;;;;;;3.92;100.00;96889.09;5036198;28;20119;-70
2023/11/08 00:40:53;;;;;;;4.13;2.40;;;;;;;3.96;100.00;96892.75;5045695;28;20098;-70
2023/11/08 00:43:19;;;;;;;4.30;2.28;;;;;;;4.03;100.00;96893.06;5038777;28;20447;-69
2023/11/08 00:45:44;;;;;;;4.10;2.97;;;;;;;4.13;100.00;96895.47;5040261;28;20045;-68
2023/11/08 00:48:10;;;;;;;3.30;2.53;;;;;;;4.25;100.00;96902.13;5026278;28;20037;-69
2023/11/08 00:50:35;;;;;;;5.60;4.30;;;;;;;4.33;100.00;96898.63;5040584;28;20500;-69
2023/11/08 00:53:03;;;;;;;5.53;3.40;;;;;;;4.34;100.00;96895.59;5041499;28;20045;-69
2023/11/08 00:55:29;;;;;;;6.90;3.33;;;;;;;4.43;100.00;96895.59;5048355;28;20089;-70
2023/11/08 00:57:55;;;;;;;6.13;2.55;;;;;;;4.47;100.00;96904.69;5049638;28;20064;-70
2023/11/08 01:00:21;;;;;;;5.65;2.80;;;;;;;4.48;100.00;96898.13;5033218;28;20426;-70
2023/11/08 01:02:47;;;;;;;7.07;2.45;;;;;;;4.49;100.00;96904.38;5039630;28;20055;-70
2023/11/08 01:05:14;;;;;;;6.47;2.90;;;;;;;4.36;100.00;96898.00;5032736;28;20403;-70
2023/11/08 01:07:40;;;;;;;3.45;2.53;;;;;;;4.37;100.00;96892.22;5039324;28;20052;-69
2023/11/08 01:10:07;;;;;;;5.85;3.03;;;;;;;4.31;100.00;96895.44;5034039;28;20060;-69
2023/11/08 01:12:32;;;;;;;7.38;3.15;;;;;;;4.27;100.00;96902.63;5018657;28;20111;-69
2023/11/08 01:14:57;;;;;;;5.35;2.95;;;;;;;4.22;100.00;96896.25;5036812;28;20496;-69
2023/11/08 01:17:24;;;;;;;4.22;2.47;;;;;;;4.35;100.00;96899.09;5035987;28;20048;-69
2023/11/08 01:19:50;;;;;;;4.45;2.70;;;;;;;4.47;100.00;96909.31;5039801;28;20035;-69
2023/11/08 01:22:16;;;;;;;4.45;2.47;;;;;;;4.50;100.00;96904.03;5034648;28;20041;-68
2023/11/08 01:24:42;;;;;;;5.05;2.90;;;;;;;4.57;100.00;96903.53;5038966;28;20041;-69
2023/11/08 01:27:08;;;;;;;3.28;2.10;;;;;;;4.63;100.00;96902.25;5016924;28;20045;-68
2023/11/08 01:29:34;;;;;;;7.68;2.63;;;;;;;4.66;100.00;96909.72;5038764;28;20041;-69
2023/11/08 01:32:00;;;;;;;8.80;2.95;;;;;;;4.72;100.00;96894.88;5038965;28;20452;-69
2023/11/08 01:34:25;;;;;;;7.35;2.60;;;;;;;4.84;100.00;96894.19;5036852;28;20048;-69
2023/11/08 01:36:51;;;;;;;6.13;2.10;;;;;;;4.84;100.00;96886.06;5039353;28;20139;-69
2023/11/08 01:39:17;;;;;;;5.22;2.28;;;;;;;4.91;100.00;96886.34;5033923;28;20033;-68
2023/11/08 01:41:49;;;;;;;9.45;2.25;;;;;;;5.04;100.00;96878.31;5040556;28;20041;-70
2023/11/08 01:44:19;;;;;;;7.15;2.38;;;;;;;5.19;100.00;96883.22;5036572;28;20041;-70
2023/11/08 01:46:46;;;;;;;;;;;;;;;5.27;100.00;96874.22;5047529;28;20043;-70
2023/11/08 01:49:12;;;;;;;6.25;2.10;;;;;;;5.21;100.00;96864.69;5033649;28;19967;-69
2023/11/08 01:51:39;;;;;;;7.65;2.38;;;;;;;5.13;100.00;96870.94;5039117;28;20045;-70
2023/11/08 01:54:04;;;;;;;3.42;1.67;;;;;;;5.15;100.00;96866.00;5034376;28;20037;-69
2023/11/08 01:56:30;;;;;;;4.93;2.22;;;;;;;5.06;100.00;96867.94;5038740;28;20041;-68
2023/11/08 01:58:57;;;;;;;9.30;2.58;;;;;;;5.01;100.00;96871.66;5037951;28;20037;-68
2023/11/08 02:01:22;;;;;;;4.68;2.70;;;;;;;4.92;100.00;96874.38;5016163;28;20053;-68
2023/11/08 02:03:53;;;;;;;5.35;2.35;;;;;;;4.81;100.00;96875.88;5038991;28;20113;-68
2023/11/08 02:06:18;;;;;;;5.75;1.95;;;;;;;4.75;100.00;96875.25;5038114;28;20136;-68
2023/11/08 02:08:45;;;;;;;3.33;2.08;;;;;;;4.69;100.00;96868.41;5044876;28;20087;-69
2023/11/08 02:11:12;;;;;;;7.50;2.33;;;;;;;4.65;100.00;96874.81;5036161;28;20044;-68
2023/11/08 02:13:38;;;;;;;4.32;1.90;;;;;;;4.79;100.00;96862.63;5038159;28;20044;-69
2023/11/08 02:16:05;;;;;;;4.28;1.95;;;;;;;4.87;100.00;96863.72;5036011;28;20041;-68
2023/11/08 02:18:33;;;;;;;5.70;1.98;;;;;;;4.84;100.00;96866.28;5042470;28;20114;-69
2023/11/08 02:21:02;;;;;;;2.17;1.33;;;;;;;4.88;100.00;96856.34;5041460;28;20040;-70
2023/11/08 02:23:28;;;;;;;6.73;1.80;;;;;;;4.99;100.00;96857.59;5053372;28;20048;-69
2023/11/08 02:25:54;;;;;;;5.00;1.80;;;;;;;4.94;100.00;96853.16;5045446;28;20040;-70
2023/11/08 02:28:21;;;;;;;4.00;2.10;;;;;;;4.81;100.00;96850.63;5030055;28;20044;-69
2023/11/08 02:30:54;;;;;;;2.95;1.67;;;;;;;4.84;100.00;96855.41;5041963;28;20040;-70
2023/11/08 02:33:21;;;;;;;4.43;1.40;;;;;;;5.02;100.00;96851.50;5036704;28;20128;-69
2023/11/08 02:35:47;;;;;;;5.22;1.52;;;;;;;4.93;100.00;96856.19;5033033;28;20103;-69
2023/11/08 02:38:14;;;;;;;4.63;1.70;;;;;;;4.75;100.00;96864.41;5038717;28;20087;-69
2023/11/08 02:40:41;;;;;;;3.08;1.98;;;;;;;4.46;100.00;96869.75;5041920;28;20064;-70
2023/11/08 02:43:06;;;;;;;3.22;2.28;;;;;;;4.38;100.00;96876.78;5036884;28;20452;-69
2023/11/08 02:45:33;;;;;;;6.45;2.42;;;;;;;4.32;100.00;96875.34;5042044;28;20128;-68
2023/11/08 02:48:02;;;;;;;4.75;2.25;;;;;;;4.25;100.00;96877.75;5042537;28;20041;-70
2023/11/08 02:50:31;;;;;;;5.50;2.22;;;;;;;3.93;100.00;96875.22;5040660;28;20041;-70
2023/11/08 02:52:58;;;;;;;3.53;2.35;;;;;;;3.93;100.00;96872.50;5040117;28;20044;-69
2023/11/08 02:55:25;;;;;;;5.65;2.33;;;;;;;3.75;100.00;96882.53;5036496;28;20124;-71
2023/11/08 02:57:51;;;;;;;5.60;2.92;;;;;;;3.62;100.00;96873.44;5042055;28;20087;-68
2023/11/08 03:00:17;;;;;;;6.15;2.42;;;;;;;3.48;100.00;96877.41;5036077;28;20037;-69
2023/11/08 03:02:42;;;;;;;5.75;2.55;;;;;;;3.49;100.00;96877.06;5041265;28;20044;-69
2023/11/08 03:05:08;;;;;;;5.90;2.38;;;;;;;3.44;100.00;96883.47;5036297;28;20037;-69
2023/11/08 03:07:33;;;;;;;5.05;2.33;;;;;;;3.35;100.00;96882.66;5042429;28;20040;-68
2023/11/08 03:09:59;;;;;;;4.55;2.30;;;;;;;3.26;100.00;96884.53;5041207;28;20041;-68
2023/11/08 03:12:25;;;;;;;5.32;2.50;;;;;;;3.18;100.00;96882.59;5017597;28;20060;-68
2023/11/08 03:14:50;;;;;;;4.85;2.58;;;;;;;3.06;100.00;96888.59;5041890;28;20458;-69
2023/11/08 03:17:17;;;;;;;5.65;2.88;;;;;;;2.96;100.00;96888.88;5036534;28;20124;-69
2023/11/08 03:19:43;;;;;;;7.30;3.03;;;;;;;2.85;100.00;96886.44;5048553;28;20152;-69
2023/11/08 03:22:10;;;;;;;4.00;2.78;;;;;;;2.87;100.00;96886.13;5049760;28;20043;-68
2023/11/08 03:24:35;;;;;;;3.13;2.03;;;;;;;3.11;100.00;96879.53;5042235;28;20041;-67
2023/11/08 03:27:01;;;;;;;3.83;2.10;;;;;;;3.05;100.00;96878.88;5040513;28;20051;-70
2023/11/08 03:29:27;;;;;;;4.72;2.60;;;;;;;2.86;100.00;96888.06;5025748;28;20076;-69
2023/11/08 03:31:52;;;;;;;4.18;2.28;;;;;;;2.68;100.00;96889.88;5041717;28;20519;-70
2023/11/08 03:34:17;;;;;;;6.90;2.65;;;;;;;2.33;100.00;96890.78;5028896;28;20059;-70
2023/11/08 03:36:43;;;;;;;5.40;3.20;;;;;;;1.96;100.00;96893.53;5041444;28;20048;-69
2023/11/08 03:39:09;;;;;;;3.95;2.70;;;;;;;1.87;100.00;96885.38;5035632;28;20045;-68
2023/11/08 03:41:36;;;;;;;5.93;2.70;;;;;;;1.86;100.00;96888.38;5041625;28;20041;-68
2023/11/08 03:44:02;;;;;;;7.20;2.95;;;;;;;1.97;100.00;96876.22;5039971;28;20045;-68
2023/11/08 03:46:27;;;;;;;4.45;3.00;;;;;;;2.07;100.00;96877.88;5042492;28;20511;-68
2023/11/08 03:48:54;;;;;;;5.38;3.00;;;;;;;2.01;100.00;96898.81;5046336;28;20044;-69
2023/11/08 03:51:20;;;;;;;4.28;2.88;;;;;;;1.93;100.00;96902.25;5036560;28;20037;-68
2023/11/08 03:53:45;;;;;;;5.00;2.95;;;;;;;1.90;100.00;96906.34;5041491;28;20083;-70
2023/11/08 03:56:12;;;;;;;4.28;2.90;;;;;;;1.90;100.00;96906.34;5034580;28;20037;-71
2023/11/08 03:58:37;;;;;;;5.93;2.85;;;;;;;1.97;100.00;96907.84;5041528;28;20056;-70
2023/11/08 04:01:03;;;;;;;6.47;2.58;;;;;;;2.02;100.00;96908.53;5042163;28;20033;-70
2023/11/08 04:03:31;;;;;;;6.45;2.72;;;;;;;2.05;100.00;96899.81;5027900;28;20547;-70
2023/11/08 04:05:56;;;;;;;6.22;2.72;;;;;;;2.07;100.00;96910.28;5041923;28;20049;-70
2023/11/08 04:08:21;;;;;;;5.00;2.50;;;;;;;2.12;100.00;96903.97;5035968;28;20045;-70
2023/11/08 04:10:47;;;;;;;7.13;2.80;;;;;;;2.18;100.00;96911.66;5040770;28;20472;-70
2023/11/08 04:13:13;;;;;;;6.80;2.95;;;;;;;2.11;100.00;96903.19;5034282;28;20045;-71
2023/11/08 04:15:38;;;;;;;3.70;2.83;;;;;;;2.04;100.00;96903.63;5040725;28;20040;-71
2023/11/08 04:18:04;;;;;;;5.25;3.00;;;;;;;2.10;100.00;96901.59;5027874;28;20115;-69
2023/11/08 04:20:29;;;;;;;6.65;2.70;;;;;;;2.02;100.00;96900.41;5021779;28;20047;-71
2023/11/08 04:22:55;;;;;;;4.90;2.60;;;;;;;1.99;100.00;96905.63;5030925;28;20132;-69
2023/11/08 04:25:21;;;;;;;5.45;2.80;;;;;;;1.94;100.00;96900.34;5034785;28;22307;-71
2023/11/08 04:27:46;;;;;;;4.55;2.70;;;;;;;1.91;100.00;96907.97;5040649;28;20044;-69
2023/11/08 04:30:13;;;;;;;3.90;2.80;;;;;;;1.83;100.00;96911.38;5034885;28;20102;-71
2023/11/08 04:32:40;;;;;;;5.65;3.00;;;;;;;1.82;100.00;96906.28;5041018;28;20051;-70
2023/11/08 04:35:06;;;;;;;5.57;3.13;;;;;;;1.88;100.00;96907.78;5047992;28;20052;-70
2023/11/08 04:37:34;;;;;;;5.95;3.35;;;;;;;1.91;100.00;96902.56;5041470;28;20071;-71
2023/11/08 04:39:59;;;;;;;5.88;3.33;;;;;;;1.96;100.00;96906.25;5038248;28;20102;-71
2023/11/08 04:42:25;;;;;;;10.95;3.75;;;;;;;1.95;100.00;96913.56;5019492;28;20064;-71
2023/11/08 04:44:51;;;;;;;5.32;3.15;;;;;;;1.96;100.00;96909.72;5039988;28;20043;-70
2023/11/08 04:47:20;;;;;;;8.77;4.05;;;;;;;1.98;100.00;96921.06;5034819;28;20048;-71
2023/11/08 04:49:48;;;;;;;8.43;4.28;;;;;;;1.96;100.00;96911.63;5027951;28;20033;-71
2023/11/08 04:52:17;;;;;;;8.20;4.40;;;;;;;1.92;100.00;96911.44;5043369;28;20037;-70
2023/11/08 04:54:45;;;;;;;8.23;3.78;;;;;;;1.85;100.00;96911.06;5039204;28;20530;-70
2023/11/08 04:57:16;;;;;;;7.75;3.90;;;;;;;1.81;100.00;96910.09;5041398;28;20033;-69
2023/11/08 04:59:45;;;;;;;7.65;4.70;;;;;;;1.72;100.00;96907.31;5038108;28;20048;-69
2023/11/08 05:02:12;;;;;;;10.20;5.25;;;;;;;1.54;100.00;96909.03;5033883;28;20037;-70
2023/11/08 05:04:40;;;;;;;8.32;4.55;;;;;;;1.53;100.00;96905.56;5039698;28;20041;-70
2023/11/08 05:07:06;;;;;;;9.63;4.90;;;;;;;1.53;100.00;96916.34;5034499;28;20060;-69
2023/11/08 05:09:32;;;;;;;8.45;4.57;;;;;;;1.53;100.00;96910.97;5028265;28;20127;-70
2023/11/08 05:11:58;;;;;;;15.80;5.72;;;;;;;1.57;100.00;96915.72;5038886;28;20132;-69
2023/11/08 05:14:24;;;;;;;13.05;5.32;;;;;;;1.72;100.00;96918.91;5034371;28;20897;-70
2023/11/08 05:16:50;;;;;;;11.70;5.00;;;;;;;1.79;100.00;96921.19;5038587;28;20041;-70
2023/11/08 05:19:16;;;;;;;11.15;5.03;;;;;;;1.83;100.00;96924.09;5035036;28;20045;-70
2023/11/08 05:21:47;;;;;;;15.77;6.78;;;;;;;1.70;100.00;96929.22;5028310;28;20094;-70
2023/11/08 05:24:13;;;;;;;11.82;4.88;;;;;;;1.81;100.00;96927.09;5034185;28;20040;-68
2023/11/08 05:26:39;;;;;;;12.57;5.72;;;;;;;1.82;100.00;96927.88;5039457;28;20048;-68
2023/11/08 05:29:04;;;;;;;11.05;5.32;;;;;;;1.60;100.00;96923.22;5036272;28;20819;-67
2023/11/08 05:31:33;;;;;;;15.23;6.95;;;;;;;1.38;100.00;96923.97;5041117;28;20095;-69
2023/11/08 05:34:01;;;;;;;21.55;7.43;;;;;;;1.30;100.00;96923.56;5025675;28;20484;-69
2023/11/08 05:36:26;;;;;;;10.70;6.03;;;;;;;1.38;100.00;96919.34;5026098;28;20339;-69
2023/11/08 05:38:52;;;;;;;11.57;5.63;;;;;;;1.46;100.00;96924.06;5039196;28;20504;-69
2023/11/08 05:41:19;;;;;;;11.88;6.55;;;;;;;1.36;100.00;96916.16;5025399;28;20048;-70
2023/11/08 05:43:44;;;;;;;11.93;5.60;;;;;;;1.17;100.00;96918.16;5025887;28;20037;-69
2023/11/08 05:46:11;;;;;;;14.35;6.88;;;;;;;0.98;100.00;96921.78;5047825;28;20178;-68
2023/11/08 05:48:37;;;;;;;15.75;7.07;;;;;;;0.74;100.00;96921.97;5039066;28;20052;-70
2023/11/08 05:51:05;;;;;;;10.90;6.07;;;;;;;0.97;100.00;96922.84;5038153;28;20480;-69
2023/11/08 05:53:31;;;;;;;9.43;5.10;;;;;;;1.07;100.00;96924.56;5043550;28;20049;-70
2023/11/08 05:55:57;;;;;;;6.80;3.95;;;;;;;1.02;100.00;96920.06;5054819;28;20071;-69
2023/11/08 05:58:22;;;;;;;6.88;3.95;;;;;;;0.96;100.00;96918.56;5027590;28;20126;-70
2023/11/08 06:00:48;;;;;;;8.77;5.20;;;;;;;0.96;100.00;96913.19;5043022;28;20556;-70
2023/11/08 06:03:13;;;;;;;9.57;4.70;;;;;;;1.09;100.00;96922.38;5037035;28;20044;-70
2023/11/08 06:05:40;;;;;;;10.23;5.43;;;;;;;1.17;100.00;96919.00;5042823;28;20041;-71
2023/11/08 06:08:06;;;;;;;7.65;4.80;;;;;;;1.17;100.00;96921.69;5038058;28;20044;-70
2023/11/08 06:10:35;;;;;;;8.32;4.80;;;;;;;1.17;100.00;96926.25;5042794;28;20036;-70
2023/11/08 06:13:02;;;;;;;10.38;4.43;;;;;;;1.22;100.00;96926.97;5027595;28;20059;-70
2023/11/08 06:15:27;;;;;;;9.43;5.65;;;;;;;1.32;100.00;96934.06;5029856;28;20117;-70
2023/11/08 06:17:53;;;;;;;9.65;5.03;;;;;;;1.39;100.00;96933.66;5029600;28;20068;-70
2023/11/08 06:20:22;;;;;;;10.50;5.32;;;;;;;1.52;100.00;96940.94;5028893;28;20048;-70
2023/11/08 06:22:48;;;;;;;14.18;7.45;;;;;;;1.69;100.00;96943.00;5024939;28;20052;-69
2023/11/08 06:25:14;;;;;;;16.00;6.53;;;;;;;1.63;100.00;96941.53;5036286;28;20048;-70
2023/11/08 06:27:39;;;;;;;11.50;6.53;;;;;;;1.65;100.00;96937.41;5033615;28;20045;-71
2023/11/08 06:30:05;;;;;;;13.75;6.13;;;;;;;1.85;100.00;96943.47;5019928;28;20037;-70
2023/11/08 06:32:30;;;;;;;11.45;6.40;;;;;;;1.92;100.00;96949.28;5031905;28;20110;-71
2023/11/08 06:35:00;;;;;;;14.02;5.68;;;;;;;1.99;100.00;96948.84;5042073;28;20107;-71
2023/11/08 06:37:32;;;;;;;12.40;6.35;;;;;;;2.06;100.00;96949.25;5037641;28;20033;-70
2023/11/08 06:39:57;;;;;;;8.63;4.78;;;;;;;2.04;100.00;96948.75;5019505;28;20043;-70
2023/11/08 06:42:23;;;;;;;8.70;4.18;;;;;;;2.08;100.00;96941.63;5037629;28;20324;-70
2023/11/08 06:44:48;;;;;;;9.73;4.28;;;;;;;2.14;100.00;96943.09;5042729;28;20033;-70
2023/11/08 06:47:15;;;;;;;7.43;4.13;;;;;;;1.94;100.00;96947.06;5037060;28;20056;-70
2023/11/08 06:49:42;;;;;;;8.82;4.13;;;;;;;2.08;100.00;96955.91;5024130;28;20112;-71
2023/11/08 06:52:07;;;;;;;11.40;4.63;;;;;;;2.32;100.00;96949.44;5042601;28;20428;-71
2023/11/08 06:54:33;;;;;;;8.07;4.32;;;;;;;2.61;100.00;96950.91;5043457;28;20043;-70
2023/11/08 06:56:59;;;;;;;5.57;3.92;;;;;;;2.86;100.00;96952.97;5044794;28;20085;-70
2023/11/08 06:59:24;;;;;;;6.82;3.42;;;;;;;2.98;100.00;96960.50;5049518;28;20125;-70
2023/11/08 07:01:50;;;;;;;6.30;4.18;;;;;;;3.06;100.00;96953.53;5046616;28;20080;-70
2023/11/08 07:04:16;;;;;;;8.73;3.40;;;;;;;3.21;100.00;96960.47;5036314;28;20033;-70
2023/11/08 07:06:42;;;;;;;5.05;3.30;;;;;;;3.38;100.00;96965.13;5012817;28;20318;-71
2023/11/08 07:09:09;;;;;;;6.78;3.67;;;;;;;3.50;100.00;96959.13;5034555;28;20093;-71
2023/11/08 07:11:35;;;;;;;7.97;3.70;;;;;;;3.63;100.00;96960.91;5050351;28;20043;-69
2023/11/08 07:14:01;;;;;;;9.10;4.18;;;;;;;3.71;100.00;96962.84;5045004;28;20033;-70
2023/11/08 07:16:28;;;;;;;5.25;4.05;;;;;;;3.71;100.00;96956.63;5019013;28;20041;-68
2023/11/08 07:18:54;;;;;;;7.10;3.80;;;;;;;3.39;100.00;96970.25;5041927;28;20474;-70
2023/11/08 07:21:21;;;;;;;10.85;5.50;;;;;;;3.41;100.00;96978.84;5036216;28;20033;-70
2023/11/08 07:23:47;;;;;;;14.60;6.85;;;;;;;3.35;100.00;96980.13;5032627;28;20079;-69
2023/11/08 07:26:15;;;;;;;13.07;7.60;;;;;;;3.42;100.00;96976.94;5036432;28;20041;-70
2023/11/08 07:28:41;;;;;;;10.30;6.05;;;;;;;3.32;100.00;96977.22;5046937;28;20068;-69
2023/11/08 07:31:08;;;;;;;9.40;4.65;;;;;;;3.28;100.00;96982.47;5017305;28;20123;-69
2023/11/08 07:33:35;;;;;;;8.65;5.45;;;;;;;3.40;100.00;96977.28;5042202;28;20434;-71
2023/11/08 07:36:00;;;;;;;15.52;6.80;;;;;;;3.72;100.00;96979.91;5033763;28;20511;-70
2023/11/08 07:38:26;;;;;;;16.40;6.72;;;;;;;4.03;100.00;96982.50;5034214;28;20059;-71
2023/11/08 07:40:51;;;;;;;7.88;4.70;;;;;;;4.16;100.00;96983.47;5037134;28;20138;-70
2023/11/08 07:43:17;;;;;;;9.77;4.70;;;;;;;4.40;100.00;96981.09;5035616;28;20132;-70
2023/11/08 07:45:42;;;;;;;11.07;4.00;;;;;;;4.40;100.00;96983.03;5039767;28;20377;-70
2023/11/08 07:48:11;;;;;;;6.22;3.70;;;;;;;4.16;100.00;96987.00;5038275;28;20423;-70
2023/11/08 07:50:36;;;;;;;8.55;3.90;;;;;;;4.18;100.00;96982.06;5034108;28;20040;-71
2023/11/08 07:53:02;;;;;;;12.35;8.93;;;;;;;4.17;100.00;96979.66;5039550;28;20033;-70
2023/11/08 07:55:27;;;;;;;11.65;6.90;;;;;;;3.80;100.00;96984.56;5051158;28;20103;-71
2023/11/08 07:57:53;;;;;;;12.70;6.35;;;;;;;3.66;100.00;96981.97;5042660;28;20045;-70
2023/11/08 08:00:22;;;;;;;12.48;5.65;;;;;;;3.66;100.00;96984.66;5036707;28;20040;-71
2023/11/08 08:02:48;;;;;;;14.70;7.70;;;;;;;3.55;100.00;96978.75;5041308;28;20051;-71
2023/11/08 08:05:13;;;;;;;10.73;5.93;;;;;;;4.05;100.00;96974.84;5027291;28;20045;-72
2023/11/08 08:07:39;;;;;;;13.75;5.63;;;;;;;5.14;100.00;96970.28;5040190;28;20044;-71
2023/11/08 08:10:06;;;;;;;9.75;4.72;;;;;;;6.10;100.00;96970.66;5035847;28;20631;-72
2023/11/08 08:12:33;;;;;;;7.55;4.22;;;;;;;7.50;100.00;96973.97;5043132;28;20061;-72
2023/11/08 08:14:59;;;;;;;11.05;4.78;;;;;;;8.24;100.00;96980.94;5043449;28;20037;-71
2023/11/08 08:17:24;;;;;;;7.75;4.97;;;;;;;8.81;100.00;96989.22;5037598;28;20615;-71
2023/11/08 08:19:52;;;;;;;9.15;4.85;;;;;;;9.36;100.00;96993.06;5044041;28;20037;-71
2023/11/08 08:22:19;;;;;;;11.48;7.88;;;;;;;8.49;100.00;96996.50;5016894;28;20059;-73
2023/11/08 08:24:45;;;;;;;9.93;4.93;;;;;;;9.08;100.00;97001.28;5038799;28;20040;-71
2023/11/08 08:27:11;;;;;;;5.82;3.70;;;;;;;9.85;100.00;97002.03;5033031;28;20117;-73
2023/11/08 08:29:36;;;;;;;10.10;4.35;;;;;;;9.93;100.00;97001.84;5041239;28;20061;-74
2023/11/08 08:32:03;;;;;;;6.70;4.13;;;;;;;10.65;100.00;97008.16;5040253;28;20474;-72
2023/11/08 08:34:28;;;;;;;9.32;3.55;;;;;;;10.84;98.40;97007.34;5028277;28;20112;-71
2023/11/08 08:36:54;;;;;;;6.13;2.78;;;;;;;10.50;98.83;97016.06;5027963;28;20051;-71
2023/11/08 08:39:24;;;;;;;4.20;2.38;;;;;;;10.66;98.94;97015.22;5034167;28;20117;-71
2023/11/08 08:41:49;;;;;;;;;;;;;;;11.50;89.61;97021.94;5040431;28;20055;-71
2023/11/08 08:44:14;;;;;;;3.67;2.05;;;;;;;12.46;82.19;97018.38;5035016;28;19920;-71
2023/11/08 08:46:40;;;;;;;4.63;1.88;;;;;;;13.69;75.27;97021.41;5039961;28;20098;-71
2023/11/08 08:49:06;;;;;;;5.95;1.85;;;;;;;13.67;70.87;97026.50;5034914;28;20511;-72
2023/11/08 08:51:32;;;;;;;4.70;2.30;;;;;;;13.96;67.15;97022.81;5041579;28;20545;-72
2023/11/08 08:53:57;;;;;;;7.72;2.20;;;;;;;15.32;64.30;97029.50;5021111;28;20133;-71
2023/11/08 08:56:23;;;;;;;6.85;1.92;;;;;;;15.04;59.18;97037.28;5033327;28;20045;-72
2023/11/08 08:58:49;;;;;;;3.90;1.45;;;;;;;15.55;59.75;97029.16;5039308;28;20032;-72
2023/11/08 09:01:18;;;;;;;2.72;1.60;;;;;;;15.91;56.32;97035.53;5015874;28;20037;-72
2023/11/08 09:03:44;;;;;;;4.65;1.52;;;;;;;15.84;55.44;97036.31;5031424;28;20049;-71
2023/11/08 09:06:09;;;;;;;2.03;1.10;;;;;;;16.48;51.13;97039.50;5032089;28;20072;-71
2023/11/08 09:08:35;;;;;;;2.17;0.80;;;;;;;16.64;50.08;97048.16;5039222;28;20671;-70
2023/11/08 09:11:01;;;;;;;3.83;1.33;;;;;;;16.29;51.17;97043.44;5040357;28;20069;-69
2023/11/08 09:13:27;;;;;;;5.05;1.70;;;;;;;17.08;50.49;97041.31;5033596;28;20519;-70
2023/11/08 09:15:52;;;;;;;3.60;1.02;;;;;;;16.15;50.43;97044.22;5040218;28;20033;-71
2023/11/08 09:18:18;;;;;;;2.53;0.90;;;;;;;17.08;50.21;97040.53;5035054;28;20052;-71
2023/11/08 09:20:44;;;;;;;3.15;1.05;;;;;;;15.88;51.10;97038.31;5038838;28;20041;-70
2023/11/08 09:23:09;;;;;;;2.88;1.15;;;;;;;17.17;48.37;97044.44;5035725;28;20037;-71
2023/11/08 09:25:35;;;;;;;5.53;1.30;;;;;;;17.81;47.40;97042.53;5022629;28;20029;-71
2023/11/08 09:28:00;;;;;;;6.05;1.08;;;;;;;18.29;45.42;97046.53;5039982;28;20120;-72
2023/11/08 09:30:25;;;;;;;3.97;1.00;;;;;;;17.29;45.59;97045.97;5034167;28;20048;-70
2023/11/08 09:32:51;;;;;;;2.20;1.00;;;;;;;18.27;44.56;97038.63;5040009;28;20079;-72
2023/11/08 09:35:16;;;;;;;3.47;1.00;;;;;;;17.88;45.58;97036.16;5037593;28;20041;-72
2023/11/08 09:37:42;;;;;;;2.40;1.17;;;;;;;18.21;43.59;97045.03;5046735;28;20041;-72
2023/11/08 09:40:11;;;;;;;2.08;1.00;;;;;;;17.52;45.66;97050.19;5038890;28;20069;-72
2023/11/08 09:42:38;;;;;;;;;;;;;;;17.19;45.17;97047.59;5040140;28;20048;-71
2023/11/08 09:45:06;;;;;;;5.47;2.35;;;;;;;16.31;46.87;97047.38;5038066;28;19995;-69
2023/11/08 09:47:33;;;;;;;6.75;1.00;;;;;;;16.08;47.26;97039.53;5040735;28;20041;-72
2023/11/08 09:49:58;;;;;;;6.78;1.40;;;;;;;15.02;51.06;97034.13;5020773;28;20095;-69
2023/11/08 09:52:25;;;;;;;3.33;1.60;;;;;;;15.94;49.18;97039.50;5033088;28;20052;-71
2023/11/08 09:54:50;;;;;;;4.82;1.10;;;;;;;16.09;48.42;97032.78;5020286;28;20567;-71
2023/11/08 09:57:19;;;;;;;4.85;1.27;;;;;;;15.63;47.74;97041.81;5032115;28;20129;-71
2023/11/08 09:59:45;;;;;;;1.53;0.70;;;;;;;15.24;48.85;97040.50;5039266;28;20029;-71
2023/11/08 10:02:11;;;;;;;5.13;1.02;;;;;;;14.20;51.05;97030.88;5014585;28;20044;-72
2023/11/08 10:04:37;;;;;;;7.35;1.02;;;;;;;14.66;50.51;97038.69;5040273;28;20079;-72
2023/11/08 10:07:05;;;;;;;1.88;1.17;;;;;;;14.48;51.45;97033.03;5038133;28;20396;-70
2023/11/08 10:09:32;;;;;;;2.75;0.95;;;;;;;15.22;49.11;97026.31;5037539;28;20681;-71
2023/11/08 10:12:02;;;;;;;2.35;0.77;;;;;;;15.35;48.43;97024.00;5038810;28;20029;-69
2023/11/08 10:14:35;;;;;;;1.70;0.90;;;;;;;15.61;48.64;97030.34;5035077;28;20431;-70
2023/11/08 10:17:03;;;;;;;2.97;1.00;;;;;;;15.46;48.86;97024.78;5042229;28;20041;-71
2023/11/08 10:19:39;;;;;;;2.40;1.15;;;;;;;15.53;47.59;97024.03;5035827;28;20043;-70
2023/11/08 10:22:07;;;;;;;3.17;1.42;;;;;;;15.58;48.17;97025.63;5033554;28;20460;-70
2023/11/08 10:24:32;;;;;;;2.80;1.23;;;;;;;15.99;47.06;97023.34;5037801;28;20124;-70
2023/11/08 10:27:11;;;;;;;3.70;1.83;;;;;;;15.97;46.21;97022.94;5038040;28;20127;-69
2023/11/08 10:29:37;;;;;;;5.32;0.90;;;;;;;16.23;45.22;97024.50;5012138;28;20041;-71
2023/11/08 10:32:20;;;;;;;3.67;0.77;;;;;;;15.79;46.75;97024.88;5035782;28;20037;-72
2023/11/08 10:34:46;;;;;;;2.80;1.02;;;;;;;14.94;49.27;97013.19;5031937;28;20036;-71
2023/11/08 10:37:26;;;;;;;1.55;0.80;;;;;;;14.19;50.42;97005.28;5036462;28;20553;-71
2023/11/08 10:39:54;;;;;;;5.65;1.02;;;;;;;14.12;50.98;96999.72;5041108;28;20040;-70
2023/11/08 10:42:20;;;;;;;1.48;0.70;;;;;;;14.19;51.10;96999.78;5034297;28;20028;-70
2023/11/08 10:44:46;;;;;;;2.60;0.80;;;;;;;14.95;49.72;96986.44;5040823;28;20082;-70
2023/11/08 10:47:13;;;;;;;3.67;1.00;;;;;;;14.91;49.61;96986.41;5036712;28;20037;-71
2023/11/08 10:49:40;;;;;;;3.78;1.10;;;;;;;15.04;49.35;96984.09;5041608;28;20095;-70
2023/11/08 10:52:10;;;;;;;2.08;0.80;;;;;;;14.79;49.64;96978.50;5036084;28;20057;-71
2023/11/08 10:54:38;;;;;;;5.35;1.05;;;;;;;14.52;50.38;96975.97;5040328;28;20036;-71
2023/11/08 10:57:06;;;;;;;4.85;0.90;;;;;;;14.83;49.91;96969.03;5038783;28;20043;-71
2023/11/08 10:59:38;;;;;;;2.17;0.90;;;;;;;15.10;49.01;96971.50;5040094;28;20069;-70
2023/11/08 11:02:20;;;;;;;5.53;1.05;;;;;;;14.69;49.72;96969.78;5037728;28;20041;-71
2023/11/08 11:04:50;;;;;;;2.38;1.00;;;;;;;14.54;50.94;96970.84;5039906;28;20037;-72
2023/11/08 11:07:17;;;;;;;3.45;0.70;;;;;;;14.03;50.27;96972.53;5038722;28;20045;-71
2023/11/08 11:09:42;;;;;;;3.15;0.85;;;;;;;13.79;51.80;96962.88;5045773;28;20056;-70
2023/11/08 11:12:16;;;;;;;2.97;1.20;;;;;;;14.01;52.39;96960.28;5048387;28;20040;-71
2023/11/08 11:14:52;;;;;;;4.72;0.90;;;;;;;14.35;50.63;96958.16;5042737;28;20525;-73
2023/11/08 11:17:34;;;;;;;3.42;0.85;;;;;;;14.91;50.75;96951.34;5035203;28;20033;-72
2023/11/08 11:20:05;;;;;;;1.70;0.90;;;;;;;15.80;48.52;96965.72;5041515;28;20041;-72
2023/11/08 11:22:33;;;;;;;2.97;0.80;;;;;;;15.36;47.54;96959.34;5041429;28;20041;-72
2023/11/08 11:24:58;;;;;;;3.45;0.77;;;;;;;15.76;46.25;96962.94;5041444;28;20048;-73
2023/11/08 11:27:33;;;;;;;3.90;0.77;;;;;;;15.44;46.49;96943.56;5037842;28;20049;-72
2023/11/08 11:30:14;;;;;;;5.22;0.85;;;;;;;15.19;47.69;96949.84;5041448;28;20033;-72